createdAt,value
2023-02-09T00:00:14.280Z,98656.81
2023-02-09T00:01:18.604Z,98659.34
2023-02-09T00:02:20.473Z,98661.91
2023-02-09T00:03:22.454Z,98659.50
2023-02-09T00:04:24.527Z,98656.28
2023-02-09T00:05:26.362Z,98658.19
2023-02-09T00:06:30.148Z,98654.56
2023-02-09T00:07:32.109Z,98657.13
2023-02-09T00:08:34.320Z,98657.13
2023-02-09T00:09:36.284Z,98670.00
2023-02-09T00:10:39.302Z,98662.97
2023-02-09T00:11:59.775Z,98655.00
2023-02-09T00:13:19.862Z,98639.31
2023-02-09T00:14:22.296Z,98658.84
2023-02-09T00:15:24.572Z,98637.41
2023-02-09T00:16:26.512Z,98649.13
2023-02-09T00:17:28.395Z,98636.25
2023-02-09T00:18:31.695Z,98647.22
2023-02-09T00:19:33.550Z,98634.44
2023-02-09T00:20:35.393Z,98635.19
2023-02-09T00:21:37.263Z,98642.97
2023-02-09T00:22:39.111Z,98634.44
2023-02-09T00:23:41.704Z,98643.94
2023-02-09T00:24:43.715Z,98636.25
2023-02-09T00:25:45.645Z,98634.94
2023-02-09T00:26:47.712Z,98637.56
2023-02-09T00:27:49.597Z,98633.34
2023-02-09T00:28:51.430Z,98625.53
2023-02-09T00:29:53.392Z,98629.91
2023-02-09T00:30:55.574Z,98624.03
2023-02-09T00:31:57.461Z,98633.19
2023-02-09T00:32:59.432Z,98630.97
2023-02-09T00:34:01.661Z,98625.00
2023-02-09T00:35:03.708Z,98617.34
2023-02-09T00:36:09.220Z,98615.59
2023-02-09T00:37:11.215Z,98609.41
2023-02-09T00:38:13.363Z,98608.28
2023-02-09T00:39:15.218Z,98618.25
2023-02-09T00:40:17.173Z,98613.22
2023-02-09T00:41:39.671Z,98609.41
2023-02-09T00:42:41.633Z,98607.09
2023-02-09T00:43:43.714Z,98609.81
2023-02-09T00:44:46.264Z,98598.69
2023-02-09T00:45:48.176Z,98607.09
2023-02-09T00:46:50.086Z,98611.41
2023-02-09T00:47:52.039Z,98607.84
2023-02-09T00:48:53.860Z,98606.78
2023-02-09T00:49:55.701Z,98615.19
2023-02-09T00:50:57.562Z,98596.38
2023-02-09T00:51:59.477Z,98599.53
2023-02-09T00:53:01.341Z,98602.00
2023-02-09T00:54:03.653Z,98600.19
2023-02-09T00:55:06.249Z,98599.28
2023-02-09T00:56:08.088Z,98608.44
2023-02-09T00:57:10.036Z,98607.34
2023-02-09T00:58:11.893Z,98605.63
2023-02-09T00:59:13.809Z,98600.94
2023-02-09T01:00:16.323Z,98600.19
2023-02-09T01:01:18.247Z,98598.72
2023-02-09T01:02:20.183Z,98615.19
2023-02-09T01:03:22.062Z,98586.13
2023-02-09T01:04:23.908Z,98597.13
2023-02-09T01:05:25.888Z,98581.69
2023-02-09T01:06:27.719Z,98575.50
2023-02-09T01:07:29.569Z,98586.41
2023-02-09T01:08:31.474Z,98582.09
2023-02-09T01:09:33.269Z,98577.72
2023-02-09T01:10:35.224Z,98583.50
2023-02-09T01:11:37.079Z,98586.97
2023-02-09T01:12:41.048Z,98581.38
2023-02-09T01:13:43.387Z,98581.38
2023-02-09T01:14:45.192Z,98566.69
2023-02-09T01:15:47.021Z,98578.41
2023-02-09T01:16:48.897Z,98568.97
2023-02-09T01:17:50.983Z,98569.16
2023-02-09T01:18:52.873Z,98567.50
2023-02-09T01:19:55.006Z,98566.84
2023-02-09T01:20:56.865Z,98568.75
2023-02-09T01:21:58.688Z,98559.25
2023-02-09T01:23:00.668Z,98567.56
2023-02-09T01:24:02.597Z,98565.75
2023-02-09T01:25:05.180Z,98572.47
2023-02-09T01:26:09.564Z,98568.09
2023-02-09T01:27:11.432Z,98565.59
2023-02-09T01:28:13.340Z,98561.47
2023-02-09T01:29:16.632Z,98569.78
2023-02-09T01:30:18.502Z,98573.28
2023-02-09T01:31:31.124Z,98562.72
2023-02-09T01:32:33.061Z,98566.34
2023-02-09T01:33:35.025Z,98575.28
2023-02-09T01:34:36.833Z,98568.34
2023-02-09T01:35:40.850Z,98566.34
2023-02-09T01:36:43.152Z,98568.66
2023-02-09T01:37:45.034Z,98565.94
2023-02-09T01:38:46.924Z,98566.59
2023-02-09T01:39:48.880Z,98558.06
2023-02-09T01:40:50.824Z,98552.97
2023-02-09T01:41:52.627Z,98552.06
2023-02-09T01:42:54.507Z,98548.44
2023-02-09T01:44:04.176Z,98548.78
2023-02-09T01:45:08.201Z,98556.28
2023-02-09T01:46:10.082Z,98547.38
2023-02-09T01:47:15.508Z,98534.50
2023-02-09T01:48:19.846Z,98537.88
2023-02-09T01:49:22.815Z,98536.88
2023-02-09T01:50:25.094Z,98528.13
2023-02-09T01:51:27.872Z,98536.13
2023-02-09T01:52:30.691Z,98526.91
2023-02-09T01:53:32.569Z,98521.84
2023-02-09T01:54:39.735Z,98515.03
2023-02-09T01:55:46.137Z,98516.19
2023-02-09T01:56:51.325Z,98513.13
2023-02-09T01:57:56.458Z,98508.84
2023-02-09T01:58:58.875Z,98503.53
2023-02-09T02:00:11.519Z,98500.09
2023-02-09T02:01:13.867Z,98503.66
2023-02-09T02:02:16.013Z,98487.31
2023-02-09T02:03:20.214Z,98488.94
2023-02-09T02:04:22.440Z,98481.84
2023-02-09T02:05:25.694Z,98485.97
2023-02-09T02:06:27.642Z,98482.59
2023-02-09T02:07:41.666Z,98480.84
2023-02-09T02:08:43.529Z,98483.25
2023-02-09T02:09:46.263Z,98480.50
2023-02-09T02:10:48.151Z,98480.50
2023-02-09T02:11:50.975Z,98485.63
2023-02-09T02:12:54.603Z,98468.63
2023-02-09T02:13:57.303Z,98478.88
2023-02-09T02:14:59.157Z,98484.00
2023-02-09T02:16:19.256Z,98483.16
2023-02-09T02:17:24.156Z,98469.63
2023-02-09T02:18:52.253Z,98477.13
2023-02-09T02:19:54.091Z,98472.00
2023-02-09T02:21:14.335Z,98483.25
2023-02-09T02:22:22.275Z,98475.56
2023-02-09T02:23:26.868Z,98466.72
2023-02-09T02:24:37.888Z,98474.31
2023-02-09T02:25:42.795Z,98472.56
2023-02-09T02:26:58.812Z,98465.97
2023-02-09T02:28:06.808Z,98459.97
2023-02-09T02:29:20.907Z,98463.25
2023-02-09T02:30:41.434Z,98461.50
2023-02-09T02:31:46.381Z,98468.09
2023-02-09T02:32:51.255Z,98469.78
2023-02-09T02:34:25.604Z,98464.00
2023-02-09T02:35:39.455Z,98463.00
2023-02-09T02:36:52.386Z,98463.00
2023-02-09T02:38:04.148Z,98455.31
2023-02-09T02:39:05.915Z,98459.63
2023-02-09T02:40:20.928Z,98450.94
2023-02-09T02:41:51.221Z,98458.06
2023-02-09T02:43:00.528Z,98453.84
2023-02-09T02:44:13.977Z,98459.03
2023-02-09T02:45:21.858Z,98454.38
2023-02-09T02:46:40.057Z,98461.38
2023-02-09T02:47:44.952Z,98460.38
2023-02-09T02:49:09.933Z,98455.84
2023-02-09T02:50:16.582Z,98458.06
2023-02-09T02:51:36.519Z,98444.88
2023-02-09T02:52:40.050Z,98445.03
2023-02-09T02:53:44.258Z,98452.63
2023-02-09T02:55:06.385Z,98443.28
2023-02-09T02:56:14.496Z,98455.53
2023-02-09T02:57:18.251Z,98448.84
2023-02-09T02:58:22.022Z,98445.38
2023-02-09T02:59:29.326Z,98446.94
2023-02-09T03:00:34.956Z,98442.47
2023-02-09T03:01:43.641Z,98446.50
2023-02-09T03:02:50.580Z,98436.19
2023-02-09T03:03:53.909Z,98440.31
2023-02-09T03:04:57.016Z,98436.94
2023-02-09T03:05:59.931Z,98437.75
2023-02-09T03:07:04.933Z,98436.19
2023-02-09T03:08:06.839Z,98437.81
2023-02-09T03:09:08.689Z,98433.63
2023-02-09T03:10:24.618Z,98433.72
2023-02-09T03:11:34.744Z,98440.50
2023-02-09T03:12:52.021Z,98436.28
2023-02-09T03:13:56.610Z,98434.81
2023-02-09T03:15:18.693Z,98445.97
2023-02-09T03:16:29.650Z,98428.78
2023-02-09T03:17:41.745Z,98437.63
2023-02-09T03:18:49.686Z,98435.16
2023-02-09T03:19:51.479Z,98440.78
2023-02-09T03:20:59.329Z,98441.06
2023-02-09T03:22:07.216Z,98435.88
2023-02-09T03:23:13.800Z,98431.69
2023-02-09T03:24:20.973Z,98439.25
2023-02-09T03:25:22.823Z,98440.66
2023-02-09T03:26:31.477Z,98437.94
2023-02-09T03:27:41.023Z,98437.75
2023-02-09T03:28:44.206Z,98444.69
2023-02-09T03:29:48.320Z,98436.94
2023-02-09T03:30:50.655Z,98431.72
2023-02-09T03:31:52.657Z,98430.66
2023-02-09T03:32:56.710Z,98435.56
2023-02-09T03:33:58.815Z,98434.03
2023-02-09T03:35:00.663Z,98435.75
2023-02-09T03:36:03.151Z,98438.75
2023-02-09T03:37:05.111Z,98429.53
2023-02-09T03:38:07.590Z,98432.81
2023-02-09T03:39:09.561Z,98433.38
2023-02-09T03:40:11.604Z,98440.97
2023-02-09T03:41:13.522Z,98451.28
2023-02-09T03:42:16.164Z,98436.28
2023-02-09T03:43:18.089Z,98438.09
2023-02-09T03:44:28.861Z,98439.91
2023-02-09T03:45:30.815Z,98436.63
2023-02-09T03:46:34.006Z,98439.84
2023-02-09T03:47:36.028Z,98440.50
2023-02-09T03:48:38.298Z,98447.25
2023-02-09T03:49:41.414Z,98443.69
2023-02-09T03:50:43.690Z,98444.53
2023-02-09T03:51:45.865Z,98449.66
2023-02-09T03:52:47.715Z,98449.81
2023-02-09T03:53:49.684Z,98444.69
2023-02-09T03:54:51.719Z,98445.34
2023-02-09T03:55:53.611Z,98437.41
2023-02-09T03:56:55.649Z,98430.66
2023-02-09T03:57:57.554Z,98447.09
2023-02-09T03:58:59.477Z,98437.75
2023-02-09T04:00:01.982Z,98448.91
2023-02-09T04:01:08.051Z,98436.13
2023-02-09T04:02:10.583Z,98441.03
2023-02-09T04:03:12.433Z,98447.63
2023-02-09T04:04:14.368Z,98445.16
2023-02-09T04:05:16.439Z,98441.38
2023-02-09T04:06:19.198Z,98439.03
2023-02-09T04:07:20.993Z,98444.22
2023-02-09T04:08:22.794Z,98438.91
2023-02-09T04:09:25.281Z,98432.97
2023-02-09T04:10:27.216Z,98441.38
2023-02-09T04:11:29.144Z,98440.50
2023-02-09T04:12:31.014Z,98435.47
2023-02-09T04:13:32.870Z,98440.66
2023-02-09T04:14:34.765Z,98450.16
2023-02-09T04:15:38.812Z,98450.34
2023-02-09T04:16:40.760Z,98451.41
2023-02-09T04:17:42.645Z,98446.38
2023-02-09T04:18:44.979Z,98450.69
2023-02-09T04:19:46.890Z,98448.34
2023-02-09T04:20:48.777Z,98443.16
2023-02-09T04:21:50.619Z,98443.09
2023-02-09T04:22:52.543Z,98447.19
2023-02-09T04:23:54.477Z,98448.13
2023-02-09T04:24:56.400Z,98449.59
2023-02-09T04:25:58.210Z,98442.81
2023-02-09T04:27:00.170Z,98450.50
2023-02-09T04:28:02.128Z,98452.97
2023-02-09T04:29:04.710Z,98449.75
2023-02-09T04:30:06.945Z,98444.41
2023-02-09T04:31:08.860Z,98450.84
2023-02-09T04:32:10.811Z,98445.91
2023-02-09T04:33:12.703Z,98454.97
2023-02-09T04:34:14.644Z,98455.63
2023-02-09T04:35:16.651Z,98450.34
2023-02-09T04:36:18.471Z,98451.44
2023-02-09T04:37:20.358Z,98443.91
2023-02-09T04:38:22.671Z,98450.59
2023-02-09T04:39:24.532Z,98443.03
2023-02-09T04:40:26.419Z,98444.59
2023-02-09T04:41:28.413Z,98446.94
2023-02-09T04:42:32.201Z,98451.91
2023-02-09T04:43:34.475Z,98442.09
2023-02-09T04:44:36.286Z,98444.84
2023-02-09T04:45:39.166Z,98442.91
2023-02-09T04:46:41.170Z,98436.84
2023-02-09T04:47:43.136Z,98435.81
2023-02-09T04:48:45.657Z,98448.34
2023-02-09T04:49:47.557Z,98442.41
2023-02-09T04:50:49.920Z,98445.63
2023-02-09T04:51:51.854Z,98444.72
2023-02-09T04:52:53.682Z,98444.97
2023-02-09T04:53:55.523Z,98436.31
2023-02-09T04:54:57.462Z,98440.44
2023-02-09T04:55:59.379Z,98448.34
2023-02-09T04:57:19.712Z,98445.91
2023-02-09T04:58:40.420Z,98448.28
2023-02-09T04:59:45.188Z,98447.06
2023-02-09T05:00:47.406Z,98438.72
2023-02-09T05:01:49.503Z,98444.59
2023-02-09T05:02:51.400Z,98450.34
2023-02-09T05:03:53.625Z,98445.16
2023-02-09T05:04:55.575Z,98446.63
2023-02-09T05:05:58.255Z,98444.25
2023-02-09T05:07:00.175Z,98454.41
2023-02-09T05:08:02.026Z,98463.47
2023-02-09T05:09:04.104Z,98450.50
2023-02-09T05:10:06.152Z,98455.59
2023-02-09T05:11:08.082Z,98453.97
2023-02-09T05:12:10.662Z,98450.50
2023-02-09T05:13:12.477Z,98458.34
2023-02-09T05:14:14.419Z,98449.50
2023-02-09T05:15:16.250Z,98453.78
2023-02-09T05:16:18.194Z,98442.75
2023-02-09T05:17:21.535Z,98444.59
2023-02-09T05:18:25.135Z,98449.09
2023-02-09T05:19:27.056Z,98465.38
2023-02-09T05:20:28.919Z,98446.41
2023-02-09T05:21:30.762Z,98456.44
2023-02-09T05:22:32.754Z,98449.22
2023-02-09T05:23:34.637Z,98459.53
2023-02-09T05:24:36.577Z,98447.56
2023-02-09T05:25:38.432Z,98445.66
2023-02-09T05:26:40.278Z,98449.84
2023-02-09T05:27:42.198Z,98449.03
2023-02-09T05:28:44.098Z,98448.28
2023-02-09T05:29:45.998Z,98444.25
2023-02-09T05:30:49.300Z,98450.38
2023-02-09T05:31:51.290Z,98451.78
2023-02-09T05:32:53.982Z,98450.19
2023-02-09T05:33:55.841Z,98442.44
2023-02-09T05:34:57.682Z,98440.97
2023-02-09T05:35:59.707Z,98439.06
2023-02-09T05:37:01.600Z,98443.19
2023-02-09T05:38:03.610Z,98440.47
2023-02-09T05:39:05.548Z,98440.47
2023-02-09T05:40:07.812Z,98442.91
2023-02-09T05:41:10.796Z,98443.84
2023-02-09T05:42:15.752Z,98445.25
2023-02-09T05:43:17.705Z,98439.94
2023-02-09T05:44:19.596Z,98438.97
2023-02-09T05:45:21.456Z,98447.47
2023-02-09T05:46:23.377Z,98440.78
2023-02-09T05:47:25.492Z,98446.53
2023-02-09T05:48:27.726Z,98447.19
2023-02-09T05:49:29.683Z,98439.72
2023-02-09T05:50:31.554Z,98448.69
2023-02-09T05:51:33.423Z,98450.03
2023-02-09T05:52:35.251Z,98446.47
2023-02-09T05:53:37.166Z,98449.03
2023-02-09T05:54:39.076Z,98445.59
2023-02-09T05:55:40.971Z,98438.53
2023-02-09T05:56:43.553Z,98441.59
2023-02-09T05:57:45.479Z,98449.94
2023-02-09T05:58:47.434Z,98454.94
2023-02-09T05:59:49.284Z,98452.38
2023-02-09T06:00:51.165Z,98449.94
2023-02-09T06:01:53.046Z,98444.25
2023-02-09T06:02:55.038Z,98450.09
2023-02-09T06:03:56.952Z,98454.94
2023-02-09T06:04:58.743Z,98455.78
2023-02-09T06:06:00.674Z,98459.59
2023-02-09T06:07:02.537Z,98452.25
2023-02-09T06:08:04.501Z,98455.16
2023-02-09T06:09:06.701Z,98456.97
2023-02-09T06:10:08.834Z,98456.03
2023-02-09T06:11:10.794Z,98455.22
2023-02-09T06:12:12.649Z,98456.16
2023-02-09T06:13:14.477Z,98459.44
2023-02-09T06:14:16.572Z,98460.00
2023-02-09T06:15:18.421Z,98461.75
2023-02-09T06:16:20.400Z,98456.63
2023-02-09T06:17:22.436Z,98461.56
2023-02-09T06:18:24.238Z,98466.13
2023-02-09T06:19:26.200Z,98463.16
2023-02-09T06:20:28.042Z,98457.84
2023-02-09T06:21:29.942Z,98459.53
2023-02-09T06:22:32.068Z,98468.75
2023-02-09T06:23:35.305Z,98458.53
2023-02-09T06:24:37.384Z,98466.19
2023-02-09T06:25:42.309Z,98465.38
2023-02-09T06:26:44.365Z,98466.03
2023-02-09T06:27:46.183Z,98464.44
2023-02-09T06:28:48.195Z,98463.56
2023-02-09T06:29:50.065Z,98465.94
2023-02-09T06:30:52.897Z,98466.66
2023-02-09T06:31:55.016Z,98466.59
2023-02-09T06:32:56.946Z,98466.78
2023-02-09T06:33:58.832Z,98458.44
2023-02-09T06:35:00.764Z,98468.75
2023-02-09T06:36:02.817Z,98463.38
2023-02-09T06:37:04.713Z,98464.03
2023-02-09T06:38:06.620Z,98465.03
2023-02-09T06:39:09.479Z,98454.81
2023-02-09T06:40:11.592Z,98458.91
2023-02-09T06:41:13.485Z,98467.41
2023-02-09T06:42:15.376Z,98462.41
2023-02-09T06:43:17.944Z,98467.53
2023-02-09T06:44:20.084Z,98465.94
2023-02-09T06:45:22.015Z,98468.34
2023-02-09T06:46:24.039Z,98466.50
2023-02-09T06:47:26.425Z,98467.41
2023-02-09T06:48:28.330Z,98459.19
2023-02-09T06:49:30.469Z,98460.25
2023-02-09T06:50:32.606Z,98471.03
2023-02-09T06:51:34.560Z,98466.66
2023-02-09T06:52:36.372Z,98469.88
2023-02-09T06:53:38.806Z,98474.94
2023-02-09T06:54:40.665Z,98472.44
2023-02-09T06:55:42.520Z,98468.34
2023-02-09T06:56:44.779Z,98473.44
2023-02-09T06:57:46.715Z,98468.50
2023-02-09T06:58:48.629Z,98473.63
2023-02-09T06:59:50.475Z,98476.66
2023-02-09T07:00:52.434Z,98480.22
2023-02-09T07:01:55.068Z,98473.63
2023-02-09T07:02:57.200Z,98484.00
2023-02-09T07:03:59.153Z,98478.75
2023-02-09T07:05:01.460Z,98486.31
2023-02-09T07:06:07.167Z,98481.38
2023-02-09T07:07:09.027Z,98472.88
2023-02-09T07:08:10.996Z,98476.94
2023-02-09T07:09:12.929Z,98466.38
2023-02-09T07:10:15.971Z,98470.50
2023-02-09T07:11:18.714Z,98473.97
2023-02-09T07:12:20.545Z,98480.78
2023-02-09T07:13:22.398Z,98466.53
2023-02-09T07:14:24.328Z,98470.00
2023-02-09T07:15:26.188Z,98471.72
2023-02-09T07:16:28.228Z,98470.97
2023-02-09T07:17:30.951Z,98466.59
2023-02-09T07:18:32.915Z,98470.34
2023-02-09T07:19:34.825Z,98471.16
2023-02-09T07:20:36.640Z,98465.78
2023-02-09T07:21:38.654Z,98463.31
2023-02-09T07:22:41.140Z,98468.34
2023-02-09T07:23:43.101Z,98460.66
2023-02-09T07:24:44.914Z,98462.25
2023-02-09T07:25:46.834Z,98462.34
2023-02-09T07:26:48.812Z,98458.13
2023-02-09T07:27:50.793Z,98452.19
2023-02-09T07:28:52.772Z,98450.44
2023-02-09T07:29:54.620Z,98464.81
2023-02-09T07:31:01.765Z,98471.06
2023-02-09T07:32:05.841Z,98459.09
2023-02-09T07:33:08.132Z,98455.63
2023-02-09T07:34:10.254Z,98449.38
2023-02-09T07:35:12.239Z,98451.03
2023-02-09T07:36:15.022Z,98455.56
2023-02-09T07:37:17.130Z,98448.81
2023-02-09T07:38:18.960Z,98449.69
2023-02-09T07:39:20.867Z,98450.28
2023-02-09T07:40:22.893Z,98445.84
2023-02-09T07:41:25.513Z,98448.22
2023-02-09T07:42:27.510Z,98444.50
2023-02-09T07:43:29.826Z,98447.97
2023-02-09T07:44:31.685Z,98449.03
2023-02-09T07:45:34.049Z,98447.56
2023-02-09T07:46:36.363Z,98448.28
2023-02-09T07:47:38.998Z,98448.06
2023-02-09T07:48:40.923Z,98443.69
2023-02-09T07:49:42.813Z,98449.63
2023-02-09T07:50:50.920Z,98450.19
2023-02-09T07:51:52.771Z,98448.22
2023-02-09T07:52:55.299Z,98443.09
2023-02-09T07:53:57.774Z,98437.97
2023-02-09T07:54:59.638Z,98448.03
2023-02-09T07:56:01.551Z,98442.84
2023-02-09T07:57:03.430Z,98450.34
2023-02-09T07:58:05.295Z,98446.06
2023-02-09T07:59:07.775Z,98448.28
2023-02-09T08:00:10.024Z,98455.78
2023-02-09T08:01:12.628Z,98449.09
2023-02-09T08:02:19.144Z,98458.44
2023-02-09T08:03:23.169Z,98448.13
2023-02-09T08:04:25.015Z,98453.06
2023-02-09T08:05:30.914Z,98455.59
2023-02-09T08:06:43.483Z,98445.22
2023-02-09T08:07:46.050Z,98451.81
2023-02-09T08:08:48.904Z,98449.81
2023-02-09T08:09:50.794Z,98447.97
2023-02-09T08:10:53.339Z,98450.38
2023-02-09T08:12:02.436Z,98450.47
2023-02-09T08:13:04.482Z,98452.75
2023-02-09T08:14:11.748Z,98456.06
2023-02-09T08:15:14.627Z,98451.84
2023-02-09T08:16:18.130Z,98455.16
2023-02-09T08:17:20.773Z,98443.84
2023-02-09T08:18:24.704Z,98455.81
2023-02-09T08:19:26.618Z,98449.59
2023-02-09T08:20:30.266Z,98450.34
2023-02-09T08:21:34.229Z,98445.97
2023-02-09T08:22:39.215Z,98448.25
2023-02-09T08:23:42.735Z,98445.41
2023-02-09T08:24:44.823Z,98442.41
2023-02-09T08:25:49.001Z,98449.66
2023-02-09T08:26:50.923Z,98449.03
2023-02-09T08:27:53.485Z,98438.34
2023-02-09T08:28:56.788Z,98437.97
2023-02-09T08:30:00.612Z,98439.16
2023-02-09T08:31:02.580Z,98438.53
2023-02-09T08:32:04.551Z,98435.31
2023-02-09T08:33:06.456Z,98427.25
2023-02-09T08:34:08.436Z,98429.16
2023-02-09T08:35:10.660Z,98431.25
2023-02-09T08:36:12.868Z,98428.41
2023-02-09T08:37:14.694Z,98428.50
2023-02-09T08:38:16.585Z,98429.84
2023-02-09T08:39:18.550Z,98432.78
2023-02-09T08:40:20.425Z,98432.28
2023-02-09T08:41:22.254Z,98428.44
2023-02-09T08:42:24.091Z,98430.91
2023-02-09T08:43:25.939Z,98433.56
2023-02-09T08:44:27.835Z,98436.84
2023-02-09T08:45:29.928Z,98432.97
2023-02-09T08:46:31.878Z,98435.25
2023-02-09T08:47:33.960Z,98433.84
2023-02-09T08:48:38.557Z,98436.97
2023-02-09T08:49:40.632Z,98435.63
2023-02-09T08:50:42.623Z,98440.91
2023-02-09T08:51:44.434Z,98436.09
2023-02-09T08:52:46.468Z,98428.81
2023-02-09T08:53:52.638Z,98430.06
2023-02-09T08:54:54.667Z,98433.16
2023-02-09T08:55:57.174Z,98431.19
2023-02-09T08:56:59.576Z,98427.91
2023-02-09T08:58:01.438Z,98429.16
2023-02-09T08:59:03.344Z,98429.88
2023-02-09T09:00:06.272Z,98425.34
2023-02-09T09:01:08.375Z,98431.00
2023-02-09T09:02:10.259Z,98423.41
2023-02-09T09:03:12.097Z,98427.31
2023-02-09T09:04:14.358Z,98412.19
2023-02-09T09:05:16.209Z,98416.94
2023-02-09T09:06:18.315Z,98415.88
2023-02-09T09:07:20.206Z,98415.47
2023-02-09T09:08:22.117Z,98410.63
2023-02-09T09:09:23.999Z,98416.06
2023-02-09T09:10:25.814Z,98413.81
2023-02-09T09:11:28.474Z,98416.50
2023-02-09T09:12:30.531Z,98418.34
2023-02-09T09:13:32.623Z,98412.97
2023-02-09T09:14:34.662Z,98414.09
2023-02-09T09:15:37.041Z,98413.69
2023-02-09T09:16:39.060Z,98412.41
2023-02-09T09:17:40.901Z,98421.69
2023-02-09T09:18:42.810Z,98428.97
2023-02-09T09:19:44.662Z,98418.28
2023-02-09T09:20:46.507Z,98416.41
2023-02-09T09:21:48.434Z,98426.41
2023-02-09T09:22:50.386Z,98407.72
2023-02-09T09:23:52.319Z,98424.28
2023-02-09T09:24:55.592Z,98413.44
2023-02-09T09:26:01.971Z,98428.22
2023-02-09T09:27:03.918Z,98422.38
2023-02-09T09:28:06.331Z,98430.47
2023-02-09T09:29:09.129Z,98420.31
2023-02-09T09:30:11.360Z,98424.88
2023-02-09T09:31:15.162Z,98419.91
2023-02-09T09:32:17.208Z,98426.03
2023-02-09T09:33:19.162Z,98423.94
2023-02-09T09:34:20.970Z,98422.34
2023-02-09T09:35:22.867Z,98425.50
2023-02-09T09:36:24.780Z,98420.84
2023-02-09T09:37:26.967Z,98423.50
2023-02-09T09:38:28.845Z,98421.44
2023-02-09T09:39:30.750Z,98426.03
2023-02-09T09:40:35.210Z,98420.31
2023-02-09T09:41:38.596Z,98419.72
2023-02-09T09:42:47.386Z,98409.53
2023-02-09T09:43:49.628Z,98415.41
2023-02-09T09:44:51.913Z,98422.19
2023-02-09T09:45:53.849Z,98424.19
2023-02-09T09:47:01.415Z,98415.19
2023-02-09T09:48:03.403Z,98416.25
2023-02-09T09:49:05.430Z,98416.84
2023-02-09T09:50:27.560Z,98412.59
2023-02-09T09:51:38.519Z,98414.72
2023-02-09T09:52:41.998Z,98412.03
2023-02-09T09:53:45.989Z,98410.75
2023-02-09T09:54:47.898Z,98411.19
2023-02-09T09:55:55.424Z,98411.19
2023-02-09T09:56:57.389Z,98420.94
2023-02-09T09:58:01.198Z,98414.00
2023-02-09T09:59:03.190Z,98407.56
2023-02-09T10:00:11.331Z,98425.50
2023-02-09T10:01:14.598Z,98411.97
2023-02-09T10:02:24.038Z,98419.97
2023-02-09T10:03:26.336Z,98409.75
2023-02-09T10:04:28.821Z,98421.50
2023-02-09T10:05:35.944Z,98413.97
2023-02-09T10:06:40.834Z,98418.31
2023-02-09T10:07:45.466Z,98407.19
2023-02-09T10:08:47.302Z,98408.09
2023-02-09T10:09:52.274Z,98419.34
2023-02-09T10:11:00.251Z,98406.88
2023-02-09T10:12:14.334Z,98416.16
2023-02-09T10:13:21.211Z,98415.56
2023-02-09T10:14:23.777Z,98408.22
2023-02-09T10:15:30.944Z,98399.50
2023-02-09T10:16:38.399Z,98411.31
2023-02-09T10:17:40.371Z,98420.56
2023-02-09T10:18:42.901Z,98414.91
2023-02-09T10:19:59.155Z,98416.25
2023-02-09T10:21:05.395Z,98420.03
2023-02-09T10:22:12.047Z,98413.00
2023-02-09T10:23:15.996Z,98411.06
2023-02-09T10:24:22.713Z,98407.34
2023-02-09T10:25:38.262Z,98410.69
2023-02-09T10:26:41.156Z,98411.94
2023-02-09T10:27:46.717Z,98402.31
2023-02-09T10:28:51.937Z,98408.63
2023-02-09T10:29:53.861Z,98400.47
2023-02-09T10:30:58.096Z,98398.00
2023-02-09T10:31:59.961Z,98399.28
2023-02-09T10:33:02.239Z,98402.84
2023-02-09T10:34:10.278Z,98390.72
2023-02-09T10:35:29.507Z,98394.44
2023-02-09T10:36:33.744Z,98395.13
2023-02-09T10:37:40.043Z,98387.25
2023-02-09T10:38:41.970Z,98386.47
2023-02-09T10:39:44.619Z,98389.31
2023-02-09T10:40:47.857Z,98384.84
2023-02-09T10:41:51.950Z,98388.94
2023-02-09T10:42:53.869Z,98386.38
2023-02-09T10:43:55.744Z,98379.75
2023-02-09T10:45:03.680Z,98381.38
2023-02-09T10:46:16.466Z,98382.56
2023-02-09T10:47:21.360Z,98382.31
2023-02-09T10:48:25.237Z,98378.25
2023-02-09T10:49:51.010Z,98380.19
2023-02-09T10:50:54.313Z,98380.63
2023-02-09T10:52:05.798Z,98384.97
2023-02-09T10:53:27.954Z,98371.09
2023-02-09T10:54:29.792Z,98374.78
2023-02-09T10:55:39.681Z,98373.69
2023-02-09T10:56:41.579Z,98367.16
2023-02-09T10:57:43.502Z,98368.38
2023-02-09T10:59:00.153Z,98365.25
2023-02-09T11:00:22.178Z,98364.88
2023-02-09T11:01:26.116Z,98363.09
2023-02-09T11:02:34.605Z,98358.59
2023-02-09T11:03:37.100Z,98356.69
2023-02-09T11:04:40.174Z,98350.56
2023-02-09T11:05:42.093Z,98353.00
2023-02-09T11:06:50.639Z,98352.75
2023-02-09T11:07:58.309Z,98351.75
2023-02-09T11:09:03.470Z,98346.88
2023-02-09T11:10:13.272Z,98346.88
2023-02-09T11:11:35.703Z,98342.75
2023-02-09T11:12:37.593Z,98339.34
2023-02-09T11:13:40.972Z,98342.75
2023-02-09T11:14:43.569Z,98339.72
2023-02-09T11:15:48.548Z,98349.00
2023-02-09T11:16:56.084Z,98349.28
2023-02-09T11:18:10.948Z,98353.78
2023-02-09T11:19:12.743Z,98346.78
2023-02-09T11:20:22.232Z,98353.06
2023-02-09T11:21:30.802Z,98354.66
2023-02-09T11:22:54.069Z,98357.22
2023-02-09T11:24:07.203Z,98356.66
2023-02-09T11:25:21.380Z,98344.78
2023-02-09T11:26:23.175Z,98351.41
2023-02-09T11:27:32.146Z,98350.31
2023-02-09T11:28:39.156Z,98350.97
2023-02-09T11:29:50.661Z,98343.28
2023-02-09T11:31:04.975Z,98343.38
2023-02-09T11:32:06.922Z,98337.75
2023-02-09T11:33:34.351Z,98329.00
2023-02-09T11:34:42.090Z,98326.63
2023-02-09T11:35:51.769Z,98320.31
2023-02-09T11:36:53.618Z,98328.44
2023-02-09T11:38:14.275Z,98329.78
2023-02-09T11:39:16.202Z,98324.66
2023-02-09T11:40:22.892Z,98324.41
2023-02-09T11:41:49.861Z,98319.44
2023-02-09T11:43:10.271Z,98315.06
2023-02-09T11:44:17.421Z,98319.66
2023-02-09T11:45:21.603Z,98325.41
2023-02-09T11:46:24.786Z,98320.47
2023-02-09T11:47:30.615Z,98302.97
2023-02-09T11:48:36.718Z,98309.41
2023-02-09T11:49:46.642Z,98312.31
2023-02-09T11:51:00.744Z,98313.38
2023-02-09T11:52:04.919Z,98319.03
2023-02-09T11:53:14.250Z,98310.25
2023-02-09T11:54:21.297Z,98314.91
2023-02-09T11:55:29.184Z,98308.63
2023-02-09T11:56:35.379Z,98311.41
2023-02-09T11:57:42.550Z,98310.00
2023-02-09T11:59:07.650Z,98303.66
2023-02-09T12:00:17.121Z,98300.00
2023-02-09T12:01:30.172Z,98312.75
2023-02-09T12:02:32.008Z,98303.78
2023-02-09T12:03:33.897Z,98300.44
2023-02-09T12:04:55.906Z,98298.72
2023-02-09T12:05:57.871Z,98290.63
2023-02-09T12:07:05.834Z,98293.06
2023-02-09T12:08:07.652Z,98293.22
2023-02-09T12:09:20.419Z,98289.81
2023-02-09T12:10:28.273Z,98295.84
2023-02-09T12:11:37.052Z,98288.88
2023-02-09T12:12:50.264Z,98287.59
2023-02-09T12:13:54.981Z,98296.69
2023-02-09T12:15:01.391Z,98281.84
2023-02-09T12:16:08.016Z,98288.22
2023-02-09T12:17:20.836Z,98283.47
2023-02-09T12:18:30.564Z,98283.69
2023-02-09T12:19:36.928Z,98286.81
2023-02-09T12:20:38.780Z,98284.88
2023-02-09T12:21:42.099Z,98288.59
2023-02-09T12:22:48.843Z,98283.88
2023-02-09T12:23:50.764Z,98280.78
2023-02-09T12:25:11.214Z,98283.72
2023-02-09T12:26:13.039Z,98278.13
2023-02-09T12:27:27.560Z,98277.84
2023-02-09T12:28:32.528Z,98275.56
2023-02-09T12:29:41.769Z,98271.34
2023-02-09T12:30:43.758Z,98268.41
2023-02-09T12:32:03.826Z,98262.88
2023-02-09T12:33:23.972Z,98266.47
2023-02-09T12:34:38.187Z,98270.53
2023-02-09T12:35:40.902Z,98268.88
2023-02-09T12:37:01.740Z,98267.75